Kasif Kalkavan — V7IX7 — position and weather

sailwx.info

Track history (hours):
 
Tides and Currents Weather Stations Pressure Air Temp Water Temp Dewpoint Dewpoint Depression Visibility Wind Speed Wind Dir Waves Ship Positions

Kasif Kalkavan

Last reported at 2014-Oct-22 11:32 UTC. Time now 2014-Oct-26 04:23 UTC.
Position N 43°57' E 034°05'.

Type: Cargo ship. MMSI: 538090190.

Date/timePositionNaut miles runAvg speedWind from/ knotsBaromVisibWave heightAir tempDewpointWater temp
2014-Oct-22 11:32N 43°57' E 034°05'1515.3
2014-Oct-22 10:33N 43°48' E 034°22'1515.2
2014-Oct-22 09:33N 43°40' E 034°40'1515.0
2014-Oct-22 08:33N 43°31' E 034°57'1515.1
2014-Oct-22 07:33N 43°22' E 035°14'1515.0
2014-Oct-22 06:33N 43°14' E 035°31'  
2014-Oct-14 15:33N 41°18' E 029°34'1414.2
2014-Oct-14 14:33N 41°15' E 029°15'133 3.8
2014-Oct-13 03:28N 40°19' E 026°36'3611.9
2014-Oct-13 00:25N 39°57' E 025°58'1213.4
2014-Oct-12 23:33N 39°47' E 025°51'14113.8
2014-Oct-12 13:22N 37°41' E 024°32'1112.9
2014-Oct-12 12:33N 37°32' E 024°25'  
Track history (hours):
 
Tides and Currents Weather Stations Pressure Air Temp Water Temp Dewpoint Dewpoint Depression Visibility Wind Speed Wind Dir Waves Ship Positions

Kasif Kalkavan

Last reported at 2014-Oct-22 11:32 UTC. Time now 2014-Oct-26 04:23 UTC.
Position N 43°57' E 034°05'.

Type: Cargo ship. MMSI: 538090190.

Date/timePositionNaut miles runAvg speedWind from/ knotsBaromVisibWave heightAir tempDewpointWater temp
2014-Oct-22 11:32N 43°57' E 034°05'1515.3
2014-Oct-22 10:33N 43°48' E 034°22'1515.2
2014-Oct-22 09:33N 43°40' E 034°40'1515.0
2014-Oct-22 08:33N 43°31' E 034°57'1515.1
2014-Oct-22 07:33N 43°22' E 035°14'1515.0
2014-Oct-22 06:33N 43°14' E 035°31'  
2014-Oct-14 15:33N 41°18' E 029°34'1414.2
2014-Oct-14 14:33N 41°15' E 029°15'133 3.8
2014-Oct-13 03:28N 40°19' E 026°36'3611.9
2014-Oct-13 00:25N 39°57' E 025°58'1213.4
2014-Oct-12 23:33N 39°47' E 025°51'14113.8
2014-Oct-12 13:22N 37°41' E 024°32'1112.9
2014-Oct-12 12:33N 37°32' E 024°25'  

Dump ship's entire track history